Time;durP1;ratioP1;P1;durP2;ratioP2;P2;SDS_P1;SDS_P2;PMS_P1;PMS_P2;Temp;Humidity;BMP_temperature;BMP_pressure;BME280_temperature;BME280_humidity;BME280_pressure;Samples;Min_cycle;Max_cycle;Signal;HPM_P1;HPM_P2
2024/03/29 00:01:02;;;;;;;3.37;1.60;;;;;;;5.74;55.76;93887.38;5070155;28;20188;-76
2024/03/29 00:03:27;;;;;;;3.53;1.60;;;;;;;5.74;56.14;93874.50;5075406;28;20582;-77
2024/03/29 00:05:52;;;;;;;2.70;1.40;;;;;;;5.67;56.26;93876.94;5091573;28;20196;-77
2024/03/29 00:08:18;;;;;;;2.70;1.60;;;;;;;5.68;56.06;93878.53;5074686;28;20228;-76
2024/03/29 00:10:43;;;;;;;4.60;1.77;;;;;;;5.63;55.98;93868.69;5073121;28;20224;-76
2024/03/29 00:13:08;;;;;;;3.73;1.90;;;;;;;5.76;55.69;93864.88;5076644;28;20215;-76
2024/03/29 00:15:33;;;;;;;3.00;1.27;;;;;;;5.68;56.02;93868.25;5070354;28;20264;-76
2024/03/29 00:17:59;;;;;;;2.67;1.50;;;;;;;5.77;55.79;93854.41;5084556;28;20207;-76
2024/03/29 00:20:24;;;;;;;3.53;2.03;;;;;;;5.78;55.68;93843.13;5052295;28;20184;-76
2024/03/29 00:22:49;;;;;;;2.50;1.43;;;;;;;5.69;56.00;93849.25;5086815;28;20237;-76
2024/03/29 00:25:15;;;;;;;3.03;2.10;;;;;;;5.56;56.09;93836.00;5087878;28;20175;-76
2024/03/29 00:27:40;;;;;;;4.67;1.60;;;;;;;5.61;55.93;93831.19;5049897;28;20235;-75
2024/03/29 00:30:06;;;;;;;2.90;1.70;;;;;;;5.58;55.80;93811.72;5076376;28;20183;-76
2024/03/29 00:32:31;;;;;;;2.90;1.40;;;;;;;5.55;56.24;93800.94;5084035;28;20278;-76
2024/03/29 00:34:57;;;;;;;3.80;1.40;;;;;;;5.66;55.98;93805.78;5076109;28;20329;-76
2024/03/29 00:37:23;;;;;;;3.80;1.33;;;;;;;5.66;55.72;93798.06;5065165;28;20780;-76
2024/03/29 00:39:49;;;;;;;2.20;1.17;;;;;;;5.68;55.74;93806.44;5063652;28;20260;-76
2024/03/29 00:42:19;;;;;;;2.83;1.43;;;;;;;5.61;55.99;93790.81;5068365;28;20204;-76
2024/03/29 00:44:45;;;;;;;2.60;1.43;;;;;;;5.68;55.69;93793.56;5070170;28;20180;-76
2024/03/29 00:47:10;;;;;;;3.37;1.33;;;;;;;5.79;55.51;93782.91;5079090;28;20807;-76
2024/03/29 00:49:36;;;;;;;2.80;1.63;;;;;;;5.74;55.71;93774.06;5058461;28;20177;-76
2024/03/29 00:52:02;;;;;;;4.30;1.60;;;;;;;5.83;55.44;93785.97;5066060;28;20697;-75
2024/03/29 00:54:27;;;;;;;4.53;1.60;;;;;;;5.86;55.78;93793.38;5076564;28;20213;-76
2024/03/29 00:56:53;;;;;;;2.17;1.40;;;;;;;5.84;55.47;93788.41;5089044;28;20271;-76
2024/03/29 00:59:18;;;;;;;2.90;1.43;;;;;;;5.83;55.42;93802.25;5050750;28;20197;-76
2024/03/29 01:01:44;;;;;;;2.00;1.20;;;;;;;5.92;55.61;93798.75;5084543;28;20285;-76
2024/03/29 01:04:10;;;;;;;2.13;1.43;;;;;;;5.89;55.23;93788.72;5075909;28;20606;-75
2024/03/29 01:06:35;;;;;;;2.37;1.50;;;;;;;6.04;55.20;93786.31;5047918;28;20251;-76
2024/03/29 01:09:01;;;;;;;2.03;1.23;;;;;;;5.99;55.05;93777.47;5051441;28;20202;-76
2024/03/29 01:11:27;;;;;;;3.63;1.50;;;;;;;5.96;55.25;93776.03;5067636;28;20182;-75
2024/03/29 01:13:52;;;;;;;4.33;1.37;;;;;;;5.92;55.29;93772.97;5067609;28;20705;-76
2024/03/29 01:16:18;;;;;;;2.43;1.40;;;;;;;5.95;55.15;93770.06;5072590;28;21784;-76
2024/03/29 01:18:43;;;;;;;1.60;1.30;;;;;;;6.01;55.32;93776.34;5082423;28;20201;-76
2024/03/29 01:21:09;;;;;;;1.87;1.20;;;;;;;5.89;55.33;93780.97;5074874;28;20246;-77
2024/03/29 01:23:34;;;;;;;3.20;1.20;;;;;;;5.97;54.99;93775.84;5069127;28;20187;-76
2024/03/29 01:26:00;;;;;;;2.43;1.23;;;;;;;5.86;55.59;93757.31;5050064;28;20191;-76
2024/03/29 01:28:25;;;;;;;2.97;1.37;;;;;;;5.93;55.04;93748.81;5062452;28;20228;-76
2024/03/29 01:30:54;;;;;;;2.07;1.40;;;;;;;6.05;54.80;93751.06;5070304;28;20185;-76
2024/03/29 01:33:20;;;;;;;3.30;1.10;;;;;;;6.07;55.04;93744.75;5067990;28;20195;-76
2024/03/29 01:35:46;;;;;;;2.03;1.10;;;;;;;6.16;54.62;93748.13;5086911;28;20204;-76
2024/03/29 01:38:11;;;;;;;3.50;1.33;;;;;;;6.11;54.87;93742.66;5082904;28;20633;-76
2024/03/29 01:40:37;;;;;;;3.23;1.30;;;;;;;6.05;54.84;93751.84;5082007;28;20235;-76
2024/03/29 01:43:02;;;;;;;3.93;1.20;;;;;;;6.03;55.45;93756.38;5074819;28;20540;-76
2024/03/29 01:45:28;;;;;;;2.37;1.13;;;;;;;6.12;54.92;93755.38;5067444;28;20181;-77
2024/03/29 01:47:53;;;;;;;3.73;1.40;;;;;;;6.14;55.15;93763.75;5070311;28;20861;-76
2024/03/29 01:50:18;;;;;;;2.10;0.90;;;;;;;6.07;55.40;93754.25;5051618;28;20209;-76
2024/03/29 01:52:44;;;;;;;2.93;1.10;;;;;;;6.14;55.37;93762.94;5061218;28;20685;-75
2024/03/29 01:55:09;;;;;;;2.50;1.27;;;;;;;6.12;55.46;93754.59;5065127;28;20198;-76
2024/03/29 01:57:35;;;;;;;2.03;1.17;;;;;;;6.05;55.57;93754.44;5069118;28;20757;-76
2024/03/29 02:00:05;;;;;;;1.87;1.20;;;;;;;6.14;55.18;93755.22;5072171;28;20184;-76
2024/03/29 02:02:30;;;;;;;3.07;1.10;;;;;;;6.13;55.26;93751.84;5049376;28;20189;-76
2024/03/29 02:04:56;;;;;;;2.23;1.00;;;;;;;6.24;55.05;93763.56;5063460;28;20292;-76
2024/03/29 02:07:22;;;;;;;1.10;0.90;;;;;;;6.20;55.25;93764.88;5047533;28;20172;-76
2024/03/29 02:09:48;;;;;;;4.20;1.47;;;;;;;6.18;55.34;93752.16;5067833;28;20185;-75
2024/03/29 02:12:13;;;;;;;2.20;1.30;;;;;;;6.30;55.13;93764.69;5071445;28;20800;-77
2024/03/29 02:14:40;;;;;;;1.47;1.00;;;;;;;6.35;55.11;93746.94;5051863;28;20193;-77
2024/03/29 02:17:06;;;;;;;4.57;1.30;;;;;;;6.27;55.35;93745.19;5065303;28;20521;-76
2024/03/29 02:19:31;;;;;;;1.60;1.03;;;;;;;6.25;55.14;93741.97;5065076;28;20185;-76
2024/03/29 02:21:57;;;;;;;2.30;1.30;;;;;;;6.29;55.46;93747.63;5066650;28;20228;-77
2024/03/29 02:24:22;;;;;;;3.13;1.20;;;;;;;6.35;55.22;93741.78;5068600;28;20184;-76
2024/03/29 02:26:48;;;;;;;2.17;1.20;;;;;;;6.40;55.06;93749.84;5048941;28;20219;-77
2024/03/29 02:29:14;;;;;;;2.60;1.20;;;;;;;6.46;54.97;93756.91;5071811;28;20196;-77
2024/03/29 02:31:39;;;;;;;1.90;0.90;;;;;;;6.31;55.43;93751.63;5082766;28;20256;-76
2024/03/29 02:34:04;;;;;;;1.67;1.20;;;;;;;6.36;55.05;93736.50;5064832;28;20195;-76
2024/03/29 02:36:30;;;;;;;4.90;1.00;;;;;;;6.37;55.09;93737.28;5065680;28;20663;-76
2024/03/29 02:38:55;;;;;;;2.07;1.00;;;;;;;6.41;55.11;93739.34;5080236;28;21630;-76
2024/03/29 02:41:21;;;;;;;0.93;0.80;;;;;;;6.43;54.63;93741.75;5071834;28;20176;-76
2024/03/29 02:43:47;;;;;;;1.67;0.90;;;;;;;6.45;54.44;93748.38;5083533;28;20216;-76
2024/03/29 02:46:12;;;;;;;1.53;1.00;;;;;;;6.60;54.42;93755.41;5055759;28;20208;-76
2024/03/29 02:48:37;;;;;;;2.97;1.00;;;;;;;6.66;54.16;93757.31;5047897;28;20235;-76
2024/03/29 02:51:03;;;;;;;1.30;1.07;;;;;;;6.64;54.09;93760.06;5065638;28;20237;-76
2024/03/29 02:53:28;;;;;;;0.93;0.90;;;;;;;6.58;54.14;93747.84;5060080;28;20266;-77
2024/03/29 02:55:53;;;;;;;2.00;0.90;;;;;;;6.71;53.75;93755.84;5068976;28;20193;-77
2024/03/29 02:58:19;;;;;;;2.57;1.20;;;;;;;6.71;53.55;93753.25;5082170;28;20227;-76
2024/03/29 03:00:44;;;;;;;2.40;1.00;;;;;;;6.67;53.45;93752.00;5049416;28;20260;-76
2024/03/29 03:03:09;;;;;;;1.43;0.80;;;;;;;6.84;52.97;93768.22;5070601;28;20259;-75
2024/03/29 03:05:35;;;;;;;2.13;1.03;;;;;;;6.89;52.79;93763.38;5081033;28;20188;-75
2024/03/29 03:10:56;;;;;;;1.47;1.03;;;;;;;6.98;52.37;93775.25;5069654;28;20200;-76
2024/03/29 03:13:21;;;;;;;1.40;0.83;;;;;;;7.03;51.95;93785.06;5075179;28;20747;-75
2024/03/29 03:15:47;;;;;;;1.73;0.80;;;;;;;7.22;51.77;93789.78;5081611;28;20185;-76
2024/03/29 03:18:12;;;;;;;2.17;0.90;;;;;;;7.16;51.94;93800.81;5062925;28;20249;-76
2024/03/29 03:20:38;;;;;;;1.00;0.80;;;;;;;7.16;51.93;93805.19;5086458;28;20184;-76
2024/03/29 03:23:03;;;;;;;1.70;0.90;;;;;;;7.37;51.47;93808.75;5088703;28;20199;-77
2024/03/29 03:25:28;;;;;;;1.33;0.80;;;;;;;7.28;51.69;93827.84;5065773;28;20169;-76
2024/03/29 03:27:54;;;;;;;1.17;0.80;;;;;;;7.24;52.44;93823.19;5064443;28;20212;-77
2024/03/29 03:30:19;;;;;;;1.90;0.63;;;;;;;7.24;52.60;93821.41;5048901;28;20168;-76
2024/03/29 03:32:44;;;;;;;2.13;0.77;;;;;;;7.26;53.90;93783.34;5066531;28;20200;-77
2024/03/29 03:35:10;;;;;;;1.33;0.70;;;;;;;7.50;53.51;93771.22;5068304;28;20181;-76
2024/03/29 03:37:35;;;;;;;1.27;0.80;;;;;;;7.56;53.91;93773.94;5063647;28;20582;-76
2024/03/29 03:40:00;;;;;;;1.43;1.00;;;;;;;7.49;53.70;93780.75;5062947;28;20694;-76
2024/03/29 03:42:26;;;;;;;0.67;0.67;;;;;;;7.59;53.31;93776.16;5084234;28;20542;-76
2024/03/29 03:44:51;;;;;;;2.10;1.00;;;;;;;7.51;53.41;93758.16;5087492;28;20220;-77
2024/03/29 03:47:16;;;;;;;1.60;0.80;;;;;;;7.60;53.81;93735.66;5086285;28;20172;-76
2024/03/29 03:49:42;;;;;;;0.80;0.70;;;;;;;7.54;54.10;93728.59;5067932;28;20193;-76
2024/03/29 03:52:07;;;;;;;1.53;0.83;;;;;;;7.49;54.51;93697.31;5082382;28;20184;-76
2024/03/29 03:54:32;;;;;;;0.90;0.70;;;;;;;7.46;54.44;93732.03;5064174;28;20315;-76
2024/03/29 03:56:58;;;;;;;0.60;0.50;;;;;;;7.52;54.93;93721.03;5069689;28;20184;-76
2024/03/29 03:59:23;;;;;;;1.37;0.70;;;;;;;7.57;55.49;93728.22;5084509;28;20203;-76
2024/03/29 04:01:51;;;;;;;1.00;0.70;;;;;;;7.51;55.48;93718.59;5084562;28;20185;-76
2024/03/29 04:04:17;;;;;;;1.17;0.83;;;;;;;7.40;55.33;93701.72;5080013;28;20545;-76
2024/03/29 04:06:42;;;;;;;1.37;0.70;;;;;;;7.45;55.50;93712.34;5047212;28;20181;-76
2024/03/29 04:09:08;;;;;;;1.17;0.70;;;;;;;7.49;56.15;93729.09;5089678;28;20682;-77
2024/03/29 04:11:33;;;;;;;3.33;0.93;;;;;;;7.44;56.31;93723.66;5068884;28;20201;-77
2024/03/29 04:13:59;;;;;;;1.40;0.80;;;;;;;7.33;56.12;93745.53;5094159;28;20218;-77
2024/03/29 04:16:24;;;;;;;1.53;0.90;;;;;;;7.25;56.01;93729.28;5073711;28;20666;-76
2024/03/29 04:18:49;;;;;;;2.20;0.90;;;;;;;7.17;56.73;93737.09;5074383;28;20197;-77
2024/03/29 04:21:15;;;;;;;1.20;0.83;;;;;;;7.27;56.73;93745.41;5092250;28;20196;-77
2024/03/29 04:23:40;;;;;;;1.10;0.90;;;;;;;7.21;57.54;93759.78;5089646;28;20260;-76
2024/03/29 04:26:05;;;;;;;0.97;0.70;;;;;;;7.26;56.83;93767.84;5074468;28;20184;-77
2024/03/29 04:28:31;;;;;;;1.53;0.90;;;;;;;7.12;56.83;93802.13;5081269;28;20667;-76
2024/03/29 04:30:57;;;;;;;1.50;1.03;;;;;;;7.15;56.58;93790.63;5085210;28;20260;-77
2024/03/29 04:33:23;;;;;;;1.70;0.67;;;;;;;7.16;57.00;93793.06;5071944;28;20207;-77
2024/03/29 04:36:02;;;;;;;1.00;0.70;;;;;;;6.84;56.22;93757.88;5072284;28;20176;-76
2024/03/29 04:38:29;;;;;;;0.90;0.73;;;;;;;7.15;57.20;93760.47;5077362;28;20547;-77
2024/03/29 04:40:56;;;;;;;2.23;0.90;;;;;;;7.14;55.54;93740.00;5085659;28;20283;-76
2024/03/29 04:43:22;;;;;;;1.00;0.90;;;;;;;7.12;56.13;93737.59;5072541;28;20185;-76
2024/03/29 04:45:47;;;;;;;1.80;0.80;;;;;;;7.30;55.51;93721.81;5072715;28;20180;-76
2024/03/29 04:48:13;;;;;;;1.17;0.90;;;;;;;7.26;55.13;93720.56;5076343;28;20192;-76
2024/03/29 04:50:39;;;;;;;1.20;0.87;;;;;;;7.27;54.71;93714.41;5087118;28;20180;-75
2024/03/29 04:53:04;;;;;;;1.27;0.90;;;;;;;7.29;55.34;93709.88;5077531;28;20223;-75
2024/03/29 04:55:30;;;;;;;1.23;0.80;;;;;;;7.34;54.56;93713.56;5070537;28;20197;-76
2024/03/29 04:57:55;;;;;;;2.03;0.80;;;;;;;7.35;54.53;93735.03;5071466;28;20308;-75
2024/03/29 05:00:21;;;;;;;0.73;0.70;;;;;;;7.30;54.34;93726.97;5070255;28;20181;-75
2024/03/29 05:02:46;;;;;;;1.10;0.60;;;;;;;7.29;53.87;93725.38;5068584;28;20228;-75
2024/03/29 05:05:11;;;;;;;1.47;0.77;;;;;;;7.32;53.98;93715.50;5076115;28;20184;-75
2024/03/29 05:07:36;;;;;;;1.60;0.97;;;;;;;7.16;54.04;93725.16;5050106;28;20636;-76
2024/03/29 05:10:06;;;;;;;1.13;0.60;;;;;;;7.20;53.88;93731.56;5090171;28;20535;-76
2024/03/29 05:12:32;;;;;;;1.63;0.70;;;;;;;7.27;54.02;93743.63;5086561;28;20256;-76
2024/03/29 05:14:57;;;;;;;1.10;0.77;;;;;;;7.14;54.47;93742.56;5088605;28;20207;-76
2024/03/29 05:17:26;;;;;;;3.77;0.93;;;;;;;7.10;54.66;93742.91;5076713;28;20176;-75
2024/03/29 05:19:51;;;;;;;2.07;1.00;;;;;;;7.06;54.54;93741.63;5051303;28;20176;-75
2024/03/29 05:22:17;;;;;;;1.30;0.90;;;;;;;7.02;54.20;93739.56;5073247;28;20580;-75
2024/03/29 05:24:42;;;;;;;1.17;0.80;;;;;;;7.21;54.27;93740.91;5052219;28;20243;-75
2024/03/29 05:27:07;;;;;;;0.80;0.80;;;;;;;7.17;53.81;93742.25;5066829;28;20200;-75
2024/03/29 05:29:33;;;;;;;3.90;0.90;;;;;;;7.21;53.42;93743.50;5085330;28;20323;-75
2024/03/29 05:31:58;;;;;;;1.53;0.83;;;;;;;7.18;53.42;93733.53;5069878;28;20185;-75
2024/03/29 05:34:23;;;;;;;0.73;0.60;;;;;;;7.21;53.21;93735.75;5084705;28;20200;-75
2024/03/29 05:36:49;;;;;;;0.70;0.57;;;;;;;7.29;53.17;93736.50;5089057;28;20188;-76
2024/03/29 05:39:15;;;;;;;1.73;0.77;;;;;;;7.32;52.81;93743.09;5089149;28;20245;-76
2024/03/29 05:41:40;;;;;;;1.37;0.80;;;;;;;7.39;51.72;93741.44;5064168;28;20177;-76
2024/03/29 05:44:06;;;;;;;0.93;0.80;;;;;;;7.53;51.79;93734.75;5059813;28;20191;-76
2024/03/29 05:46:31;;;;;;;1.27;0.63;;;;;;;7.45;51.73;93748.50;5068597;28;20716;-76
2024/03/29 05:48:56;;;;;;;0.80;0.70;;;;;;;7.56;51.32;93734.38;5072997;28;20294;-76
2024/03/29 05:51:22;;;;;;;0.50;0.50;;;;;;;7.76;51.10;93740.66;5072613;28;20185;-75
2024/03/29 05:53:47;;;;;;;1.43;0.63;;;;;;;7.80;51.06;93744.53;5070362;28;20578;-75
2024/03/29 05:56:12;;;;;;;1.57;1.03;;;;;;;7.80;50.65;93748.91;5073496;28;20408;-76
2024/03/29 05:58:38;;;;;;;1.33;0.80;;;;;;;7.71;50.33;93755.91;5068152;28;20208;-76
2024/03/29 06:01:03;;;;;;;1.00;0.70;;;;;;;7.94;50.10;93750.69;5076470;28;20270;-76
2024/03/29 06:03:29;;;;;;;0.80;0.80;;;;;;;7.94;50.00;93745.53;5084562;28;20181;-76
2024/03/29 06:05:54;;;;;;;0.80;0.60;;;;;;;7.98;49.70;93758.91;5050839;28;20235;-76
2024/03/29 06:08:21;;;;;;;1.43;0.73;;;;;;;7.98;49.30;93756.34;5081411;28;20617;-75
2024/03/29 06:10:46;;;;;;;2.63;0.73;;;;;;;8.33;48.68;93758.25;5090915;28;20214;-75
2024/03/29 06:13:27;;;;;;;1.70;0.80;;;;;;;8.43;48.60;93763.19;5050197;28;20204;-76
2024/03/29 06:18:37;;;;;;;0.93;0.50;;;;;;;8.74;47.57;93761.22;5082359;28;20212;-75
2024/03/29 06:21:03;;;;;;;0.77;0.77;;;;;;;8.76;47.73;93772.22;5056568;28;20181;-76
2024/03/29 06:23:28;;;;;;;1.03;0.70;;;;;;;8.82;46.97;93785.41;5085684;28;20251;-75
2024/03/29 06:25:53;;;;;;;2.20;0.60;;;;;;;8.90;46.81;93800.84;5049605;28;20181;-76
2024/03/29 06:28:19;;;;;;;0.50;0.50;;;;;;;9.11;46.82;93797.53;5072917;28;20227;-76
2024/03/29 06:30:44;;;;;;;1.10;0.73;;;;;;;8.89;46.71;93800.03;5073214;28;20191;-76
2024/03/29 06:33:09;;;;;;;0.47;0.47;;;;;;;9.14;46.67;93795.38;5077204;28;20697;-76
2024/03/29 06:35:35;;;;;;;1.10;0.50;;;;;;;9.24;46.58;93785.53;5051643;28;20590;-76
2024/03/29 06:38:00;;;;;;;0.80;0.50;;;;;;;9.50;46.04;93785.00;5068148;28;20206;-76
2024/03/29 06:40:25;;;;;;;0.50;0.50;;;;;;;9.61;45.83;93775.94;5068406;28;20176;-75
2024/03/29 06:42:51;;;;;;;1.30;0.80;;;;;;;9.76;45.20;93774.09;5061974;28;20214;-74
2024/03/29 06:45:16;;;;;;;1.43;0.60;;;;;;;10.03;45.69;93774.31;5073861;28;20230;-76
2024/03/29 06:47:41;;;;;;;1.83;0.70;;;;;;;10.21;45.36;93772.88;5052958;28;20208;-77
2024/03/29 06:50:07;;;;;;;0.50;0.50;;;;;;;10.36;44.81;93765.03;5071623;28;20196;-76
2024/03/29 06:52:33;;;;;;;0.77;0.70;;;;;;;10.46;44.70;93754.31;5068251;28;20228;-77
2024/03/29 06:54:58;;;;;;;0.67;0.60;;;;;;;10.73;45.14;93744.88;5089842;28;20218;-77
2024/03/29 06:57:25;;;;;;;1.27;0.50;;;;;;;10.72;44.98;93748.47;5072230;28;20268;-77
2024/03/29 06:59:51;;;;;;;1.10;0.70;;;;;;;10.84;45.33;93739.13;5087918;28;20200;-76
2024/03/29 07:02:17;;;;;;;0.77;0.70;;;;;;;10.82;45.09;93748.91;5071532;28;20518;-76
2024/03/29 07:04:42;;;;;;;0.50;0.47;;;;;;;10.56;45.48;93756.56;5082996;28;20220;-76
2024/03/29 07:07:07;;;;;;;1.20;0.63;;;;;;;10.53;45.50;93747.38;5070683;28;20188;-76
2024/03/29 07:09:32;;;;;;;1.07;0.63;;;;;;;10.49;45.01;93748.72;5065743;28;20232;-76
2024/03/29 07:11:58;;;;;;;0.60;0.60;;;;;;;10.28;45.68;93739.22;5089048;28;20586;-76
2024/03/29 07:14:26;;;;;;;2.27;0.53;;;;;;;10.02;45.92;93749.38;5068683;28;20217;-75
2024/03/29 07:16:51;;;;;;;1.73;0.50;;;;;;;10.05;46.13;93751.59;5052584;28;20191;-76
2024/03/29 07:19:18;;;;;;;0.67;0.60;;;;;;;10.00;46.07;93761.75;5073938;28;20232;-76
2024/03/29 07:21:44;;;;;;;0.50;0.50;;;;;;;9.90;46.29;93762.88;5086781;28;20193;-76
2024/03/29 07:24:09;;;;;;;1.60;0.50;;;;;;;9.87;47.04;93776.19;5070051;28;20191;-76
2024/03/29 07:26:34;;;;;;;1.90;0.50;;;;;;;9.78;48.91;93772.13;5076987;28;20204;-75
2024/03/29 07:29:00;;;;;;;1.77;0.83;;;;;;;9.78;51.55;93766.94;5082485;28;20222;-75
2024/03/29 07:31:26;;;;;;;1.13;0.60;;;;;;;9.61;53.27;93778.53;5048246;28;20202;-76
2024/03/29 07:33:51;;;;;;;2.63;0.83;;;;;;;9.41;56.90;93777.53;5066796;28;20216;-75
2024/03/29 07:36:17;;;;;;;0.97;0.70;;;;;;;9.13;59.58;93778.22;5048647;28;20185;-76
2024/03/29 07:38:43;;;;;;;0.90;0.70;;;;;;;9.28;60.67;93776.41;5050854;28;20254;-76
2024/03/29 07:41:10;;;;;;;2.83;0.70;;;;;;;8.99;63.52;93776.44;5064107;28;20228;-76
2024/03/29 07:43:40;;;;;;;2.80;0.70;;;;;;;9.06;65.02;93774.75;5048280;28;20204;-77
2024/03/29 07:46:08;;;;;;;0.93;0.90;;;;;;;8.93;65.64;93774.59;5078075;28;20851;-77
2024/03/29 07:48:34;;;;;;;0.90;0.60;;;;;;;8.85;65.97;93775.50;5054332;28;20211;-77
2024/03/29 07:50:59;;;;;;;1.33;0.80;;;;;;;8.80;67.17;93777.81;5070115;28;20188;-77
2024/03/29 07:53:24;;;;;;;1.57;0.80;;;;;;;8.85;68.34;93780.69;5086189;28;20204;-77
2024/03/29 07:55:50;;;;;;;1.23;0.60;;;;;;;9.01;68.67;93779.66;5057168;28;20203;-77
2024/03/29 07:58:16;;;;;;;1.23;0.83;;;;;;;8.90;69.92;93793.06;5080112;28;20288;-77
2024/03/29 08:00:42;;;;;;;0.70;0.70;;;;;;;8.68;71.72;93811.13;5076125;28;20195;-77
2024/03/29 08:03:08;;;;;;;1.33;0.60;;;;;;;8.71;73.04;93810.75;5070689;28;20266;-76
2024/03/29 08:05:33;;;;;;;2.40;0.83;;;;;;;8.95;73.40;93811.47;5054865;28;20189;-77
2024/03/29 08:07:59;;;;;;;0.87;0.50;;;;;;;8.97;75.03;93819.84;5069447;28;20231;-76
2024/03/29 08:10:24;;;;;;;3.77;0.73;;;;;;;8.98;76.22;93819.66;5089789;28;20208;-77
2024/03/29 08:12:50;;;;;;;3.17;0.80;;;;;;;9.05;78.05;93835.28;5079143;28;20258;-76
2024/03/29 08:15:17;;;;;;;0.50;0.50;;;;;;;9.19;78.32;93862.97;5071048;28;20176;-77
2024/03/29 08:17:43;;;;;;;0.67;0.57;;;;;;;9.31;78.44;93874.47;5073657;28;20208;-76
2024/03/29 08:20:09;;;;;;;1.20;1.00;;;;;;;8.40;79.29;93882.53;5079007;28;20181;-75
2024/03/29 08:22:34;;;;;;;1.27;0.80;;;;;;;8.71;79.06;93887.59;5054556;28;21120;-75
2024/03/29 08:25:00;;;;;;;2.17;1.27;;;;;;;8.23;81.21;93900.75;5091440;28;20542;-76
2024/03/29 08:27:26;;;;;;;1.43;1.07;;;;;;;8.50;81.18;93896.84;5077889;28;20183;-76
2024/03/29 08:29:52;;;;;;;2.43;1.37;;;;;;;8.11;82.88;93888.38;5075935;28;20272;-76
2024/03/29 08:32:17;;;;;;;3.63;1.20;;;;;;;7.93;84.06;93892.03;5058392;28;20195;-76
2024/03/29 08:34:42;;;;;;;1.83;1.10;;;;;;;8.14;85.08;93895.81;5070346;28;20205;-77
2024/03/29 08:37:08;;;;;;;3.20;1.70;;;;;;;8.26;85.03;93903.94;5073407;28;20546;-77
2024/03/29 08:39:34;;;;;;;3.03;1.20;;;;;;;8.21;84.07;93917.38;5073858;28;20176;-76
2024/03/29 08:42:02;;;;;;;1.87;1.30;;;;;;;8.35;84.59;93908.09;5049517;28;20226;-77
2024/03/29 08:44:27;;;;;;;1.77;1.20;;;;;;;8.30;85.51;93920.72;5072150;28;20185;-77
2024/03/29 08:46:56;;;;;;;1.60;1.20;;;;;;;8.21;87.04;93917.38;5091902;28;20196;-77
2024/03/29 08:49:21;;;;;;;1.20;1.07;;;;;;;8.45;86.58;93930.16;5076029;28;20207;-76
2024/03/29 08:51:46;;;;;;;2.57;1.13;;;;;;;8.72;85.98;93922.84;5083324;28;20602;-76
2024/03/29 08:54:11;;;;;;;1.37;1.20;;;;;;;8.95;85.35;93925.38;5077437;28;20250;-77
2024/03/29 08:56:37;;;;;;;1.40;1.10;;;;;;;8.89;86.45;93928.66;5068278;28;20338;-76
2024/03/29 08:59:07;;;;;;;1.67;1.17;;;;;;;9.02;86.29;93934.84;5089732;28;20250;-77
2024/03/29 09:01:36;;;;;;;2.93;1.13;;;;;;;9.03;87.76;93933.88;5074783;28;20189;-77
2024/03/29 09:04:03;;;;;;;1.07;0.87;;;;;;;9.24;87.19;93930.56;5070504;28;20290;-77
2024/03/29 09:06:28;;;;;;;1.30;0.80;;;;;;;9.51;87.45;93929.13;5074848;28;20192;-77
2024/03/29 09:08:53;;;;;;;1.73;1.07;;;;;;;9.58;87.94;93937.78;5076331;28;20192;-77
2024/03/29 09:11:19;;;;;;;2.00;1.70;;;;;;;9.89;87.52;93937.56;5090329;28;20638;-77
2024/03/29 09:13:44;;;;;;;3.20;1.30;;;;;;;9.93;88.02;93930.22;5079112;28;20254;-77
2024/03/29 09:16:10;;;;;;;4.57;2.23;;;;;;;10.30;87.50;93929.22;5079170;28;20551;-77
2024/03/29 09:18:35;;;;;;;4.63;3.50;;;;;;;10.40;87.95;93932.31;5095950;28;20204;-76
2024/03/29 09:21:01;;;;;;;1.50;1.40;;;;;;;10.49;87.76;93931.19;5092620;28;20188;-77
2024/03/29 09:23:29;;;;;;;2.10;1.00;;;;;;;10.61;88.32;93934.13;5093588;28;20539;-77
2024/03/29 09:25:58;;;;;;;2.67;1.00;;;;;;;10.69;88.07;93935.75;5068325;28;20173;-76
2024/03/29 09:28:23;;;;;;;2.27;1.00;;;;;;;10.74;87.95;93928.22;5072521;28;20248;-76
2024/03/29 09:30:49;;;;;;;2.27;1.37;;;;;;;10.99;87.10;93913.81;5074888;28;20687;-76
2024/03/29 09:33:14;;;;;;;1.90;1.60;;;;;;;11.09;87.43;93894.50;5087434;28;20205;-76
2024/03/29 09:35:40;;;;;;;1.50;1.40;;;;;;;11.25;86.80;93905.41;5080057;28;20181;-76
2024/03/29 09:38:05;;;;;;;3.80;1.50;;;;;;;11.09;87.59;93897.09;5087677;28;20672;-76
2024/03/29 09:40:31;;;;;;;3.03;1.80;;;;;;;11.24;87.08;93879.59;5087183;28;20181;-79
2024/03/29 09:43:02;;;;;;;2.27;1.00;;;;;;;11.33;87.56;93902.66;5068309;28;20188;-77
2024/03/29 09:45:32;;;;;;;3.17;1.87;;;;;;;11.15;88.57;93910.13;5084173;28;20259;-76
2024/03/29 09:47:58;;;;;;;1.73;1.40;;;;;;;11.44;87.41;93903.91;5073862;28;20716;-77
2024/03/29 09:50:24;;;;;;;2.10;1.60;;;;;;;11.59;86.87;93896.78;5051086;28;20185;-78
2024/03/29 09:52:50;;;;;;;3.00;1.87;;;;;;;11.73;86.82;93896.81;5066337;28;20726;-76
2024/03/29 09:55:17;;;;;;;3.07;2.60;;;;;;;11.76;86.68;93891.25;5077542;28;20188;-76
2024/03/29 09:57:42;;;;;;;3.70;2.80;;;;;;;11.81;86.56;93899.28;5085279;28;20209;-77
2024/03/29 10:00:08;;;;;;;1.93;1.30;;;;;;;11.62;86.92;93893.78;5052927;28;20658;-76
2024/03/29 10:02:34;;;;;;;2.27;1.20;;;;;;;11.59;87.49;93888.16;5066113;28;20726;-76
2024/03/29 10:05:03;;;;;;;2.10;1.50;;;;;;;11.70;87.09;93863.41;5072632;28;20249;-76
2024/03/29 10:07:29;;;;;;;1.60;1.40;;;;;;;11.80;86.88;93858.66;5071852;28;20207;-77
2024/03/29 10:09:56;;;;;;;1.87;1.10;;;;;;;11.85;86.88;93859.69;5081504;28;20181;-77
2024/03/29 10:12:22;;;;;;;1.83;0.90;;;;;;;12.09;86.08;93850.50;5058714;28;20184;-76
2024/03/29 10:15:03;;;;;;;11.33;4.47;;;;;;;12.03;85.41;93859.13;5055421;28;20844;-77
2024/03/29 10:17:28;;;;;;;8.20;4.43;;;;;;;11.77;86.31;93879.84;5070403;28;20280;-77
2024/03/29 10:19:53;;;;;;;1.30;0.70;;;;;;;11.76;85.96;93881.63;5092289;28;20610;-77
2024/03/29 10:22:19;;;;;;;1.80;0.73;;;;;;;11.90;86.15;93865.09;5058036;28;20879;-77
2024/03/29 10:24:44;;;;;;;1.83;0.90;;;;;;;12.42;83.90;93845.34;5053365;28;20218;-77
2024/03/29 10:27:09;;;;;;;2.60;1.10;;;;;;;12.50;83.25;93843.56;5057453;28;20649;-79
2024/03/29 10:29:35;;;;;;;1.80;1.40;;;;;;;12.75;82.60;93850.56;5054978;28;20674;-77
2024/03/29 10:32:01;;;;;;;1.77;1.33;;;;;;;12.76;82.33;93854.75;5068654;28;20180;-76
2024/03/29 10:34:29;;;;;;;1.87;1.30;;;;;;;13.01;83.09;93854.94;5071181;28;20214;-76
2024/03/29 10:36:54;;;;;;;2.00;1.20;;;;;;;12.88;82.21;93856.72;5069849;28;20181;-77
2024/03/29 10:39:20;;;;;;;0.90;0.90;;;;;;;13.10;82.88;93858.13;5089357;28;20200;-77
2024/03/29 10:41:47;;;;;;;1.93;1.17;;;;;;;13.20;81.66;93857.72;5077595;28;20836;-76
2024/03/29 10:44:14;;;;;;;0.83;0.83;;;;;;;12.98;80.08;93859.72;5069592;28;20193;-76
2024/03/29 10:46:41;;;;;;;1.43;0.80;;;;;;;13.44;78.33;93854.44;5070504;28;20189;-77
2024/03/29 10:49:11;;;;;;;1.47;0.80;;;;;;;13.69;76.75;93848.50;5076833;28;20204;-77
2024/03/29 10:51:40;;;;;;;1.60;0.83;;;;;;;14.06;76.81;93846.94;5057910;28;20193;-77
2024/03/29 10:54:08;;;;;;;0.87;0.80;;;;;;;14.42;74.64;93846.28;5066531;28;20263;-77
2024/03/29 10:56:35;;;;;;;3.40;1.80;;;;;;;14.13;77.26;93842.44;5061594;28;20184;-77
2024/03/29 10:59:06;;;;;;;5.60;2.30;;;;;;;14.24;77.47;93841.00;5086411;28;20204;-77
2024/03/29 11:01:32;;;;;;;1.70;1.60;;;;;;;14.40;77.21;93843.91;5087332;28;20216;-77
2024/03/29 11:04:04;;;;;;;3.00;1.70;;;;;;;14.33;77.52;93837.13;5080388;28;20641;-77
2024/03/29 11:06:30;;;;;;;2.17;1.60;;;;;;;14.42;78.00;93836.63;5067726;28;20714;-77
2024/03/29 11:08:58;;;;;;;1.57;1.47;;;;;;;14.61;77.46;93826.28;5087503;28;20249;-77
2024/03/29 11:11:25;;;;;;;1.00;0.77;;;;;;;14.53;76.44;93831.75;5067202;28;20185;-77
2024/03/29 11:14:00;;;;;;;3.00;1.50;;;;;;;14.92;78.35;93826.19;5068680;28;20224;-77
2024/03/29 11:16:25;;;;;;;4.43;2.10;;;;;;;15.21;77.87;93824.69;5075475;28;20706;-77
2024/03/29 11:18:51;;;;;;;4.30;1.97;;;;;;;15.12;78.66;93827.81;5072390;28;20204;-76
2024/03/29 11:21:20;;;;;;;3.97;1.80;;;;;;;15.20;79.07;93832.75;5047284;28;20189;-77
2024/03/29 11:23:49;;;;;;;1.80;1.57;;;;;;;14.77;79.91;93833.56;5067739;28;20221;-76
2024/03/29 11:26:15;;;;;;;1.73;1.63;;;;;;;14.63;79.97;93834.69;5073630;28;20188;-77
2024/03/29 11:28:42;;;;;;;3.93;1.50;;;;;;;14.44;78.65;93831.19;5086522;28;20201;-75
2024/03/29 11:31:08;;;;;;;3.50;1.60;;;;;;;14.63;78.49;93826.84;5072364;28;20646;-76
2024/03/29 11:33:43;;;;;;;2.07;1.30;;;;;;;14.66;79.05;93837.66;5052442;28;20547;-76
2024/03/29 11:36:29;;;;;;;2.97;1.50;;;;;;;14.39;77.75;93836.25;5081510;28;20191;-76
2024/03/29 11:38:59;;;;;;;1.83;1.30;;;;;;;14.08;78.02;93835.25;5070064;28;20207;-76